This is the latest recevied weather packets stored in our database for station/object KD9IXX-13. If no packets are shown the sender has not sent any weather packets the latest 10 day(s).
| Time | Temp. | Humidity | Pressure | Rain* | Wind** | Luminosity | Snow |
|---|---|---|---|---|---|---|---|
| 1777567502 | 13.33° C | 52% | 1018 hPa | 0 mm | - | 283 W/m² | - |
| 1777567203 | 13.33° C | 52% | 1018.1 hPa | 0 mm | - | 371 W/m² | - |
| 1777566902 | 13.33° C | 51% | 1018.2 hPa | 0 mm | - | 380 W/m² | - |
| 1777566603 | 12.22° C | 52% | 1018 hPa | 0 mm | - | 286 W/m² | - |
| 1777566302 | 12.78° C | 54% | 1018.2 hPa | 0 mm | - | 291 W/m² | - |
| 1777566002 | 12.78° C | 53% | 1018.1 hPa | 0 mm | - | 419 W/m² | - |
| 1777565702 | 13.33° C | 52% | 1018.4 hPa | 0 mm | - | 416 W/m² | - |
| 1777565402 | 13.33° C | 52% | 1018.4 hPa | 0 mm | - | 601 W/m² | - |
| 1777565102 | 12.78° C | 52% | 1018.5 hPa | 0 mm | - | 442 W/m² | - |
| 1777564802 | 13.33° C | 52% | 1018.3 hPa | 0 mm | - | 670 W/m² | - |
| 1777564502 | 13.33° C | 49% | 1018.2 hPa | 0 mm | - | 702 W/m² | - |
| 1777564202 | 12.78° C | 53% | 1018.5 hPa | 0 mm | - | 693 W/m² | - |
| 1777563902 | 12.22° C | 56% | 1018.5 hPa | 0 mm | - | 691 W/m² | - |
| 1777563602 | 13.33° C | 50% | 1018.3 hPa | 0 mm | - | 695 W/m² | - |
| 1777563302 | 12.78° C | 53% | 1018.5 hPa | 0 mm | - | 694 W/m² | - |
| 1777563002 | 12.22° C | 57% | 1018.7 hPa | 0 mm | - | 704 W/m² | - |
| 1777562702 | 12.22° C | 56% | 1018.5 hPa | 0 mm | - | 686 W/m² | - |
| 1777562402 | 12.22° C | 58% | 1018.5 hPa | 0 mm | - | 660 W/m² | - |
| 1777562102 | 11.67° C | 60% | 1018.6 hPa | 0 mm | - | 658 W/m² | - |
| 1777561802 | 11.67° C | 61% | 1018.8 hPa | 0 mm | - | 664 W/m² | - |
| 1777561502 | 11.67° C | 60% | 1018.7 hPa | 0 mm | - | 677 W/m² | - |
| 1777561202 | 11.11° C | 58% | 1018.7 hPa | 0 mm | - | 679 W/m² | - |
| 1777560902 | 11.67° C | 57% | 1018.7 hPa | 0 mm | - | 674 W/m² | - |
| 1777560602 | 11.11° C | 65% | 1018.4 hPa | 0 mm | - | 645 W/m² | - |
| 1777560302 | 10.56° C | 70% | 1018.5 hPa | 0 mm | - | 638 W/m² | - |
* Rain latest hour (hover to see other rain measurements)
** Current wind speed in m/s (hover to see current wind gust speed)